createdAt,value
2022-12-17T07:20:30.435Z,8.47
2022-12-17T07:23:17.947Z,9.20
2022-12-17T07:26:03.369Z,9.40
2022-12-17T07:28:48.617Z,11.02
2022-12-17T07:31:34.091Z,10.07
2022-12-17T07:34:19.062Z,10.88
2022-12-17T07:37:05.691Z,10.50
2022-12-17T07:39:50.984Z,9.23
2022-12-17T07:42:36.214Z,10.38
2022-12-17T07:45:21.354Z,10.95
2022-12-17T07:48:10.302Z,10.88
2022-12-17T07:50:55.628Z,11.00
2022-12-17T07:53:42.197Z,10.18
2022-12-17T07:56:27.497Z,9.40
2022-12-17T07:59:12.912Z,12.68
2022-12-17T08:01:58.618Z,10.98
2022-12-17T08:04:43.694Z,11.48
2022-12-17T08:07:25.164Z,11.45
2022-12-17T08:10:11.898Z,10.00
2022-12-17T08:12:57.224Z,10.10
2022-12-17T08:15:42.416Z,9.88
2022-12-17T08:18:27.944Z,9.30
2022-12-17T08:21:12.494Z,8.88
2022-12-17T08:24:06.132Z,8.75
2022-12-17T08:26:52.775Z,9.32
2022-12-17T08:29:38.252Z,8.60
2022-12-17T08:32:23.582Z,10.13
2022-12-17T08:35:08.718Z,10.18
2022-12-17T08:37:53.980Z,10.40
2022-12-17T08:40:39.336Z,10.40
2022-12-17T08:43:26.113Z,10.73
2022-12-17T08:46:11.800Z,11.40
2022-12-17T08:48:57.309Z,10.88
2022-12-17T08:51:43.230Z,11.93
2022-12-17T08:54:28.498Z,12.63
2022-12-17T08:57:22.587Z,9.50
2022-12-17T09:00:17.724Z,10.32
2022-12-17T09:03:03.183Z,9.65
2022-12-17T09:05:48.837Z,9.05
2022-12-17T09:08:30.483Z,10.65
2022-12-17T09:11:17.803Z,10.52
2022-12-17T09:14:03.093Z,10.38
2022-12-17T09:17:04.319Z,11.90
2022-12-17T09:19:49.558Z,12.82
2022-12-17T09:22:34.489Z,14.20
2022-12-17T09:25:19.499Z,13.50
2022-12-17T09:28:04.467Z,11.73
2022-12-17T09:30:49.907Z,12.90
2022-12-17T09:33:37.006Z,13.35
2022-12-17T09:36:23.234Z,13.52
2022-12-17T09:39:08.634Z,13.95
2022-12-17T09:42:05.120Z,12.73
2022-12-17T09:45:00.015Z,13.02
2022-12-17T09:47:54.448Z,13.35
2022-12-17T09:50:41.003Z,13.73
2022-12-17T09:53:41.547Z,13.30
2022-12-17T09:56:30.266Z,12.48
2022-12-17T09:59:15.495Z,10.70
2022-12-17T10:02:01.047Z,11.38
2022-12-17T10:04:52.103Z,11.35
2022-12-17T10:07:47.388Z,11.55
2022-12-17T10:10:36.276Z,11.45
2022-12-17T10:13:29.376Z,11.48
2022-12-17T10:16:14.798Z,11.38
2022-12-17T10:19:00.882Z,11.80
2022-12-17T10:21:49.868Z,12.35
2022-12-17T10:24:36.273Z,12.38
2022-12-17T10:27:27.587Z,12.90
2022-12-17T10:30:13.033Z,13.45
2022-12-17T10:32:58.351Z,13.43
2022-12-17T10:35:53.696Z,12.82
2022-12-17T10:38:41.469Z,13.32
2022-12-17T10:41:39.668Z,13.15
2022-12-17T10:44:42.314Z,14.07
2022-12-17T10:47:31.105Z,13.95
2022-12-17T10:50:17.723Z,13.35
2022-12-17T10:53:05.202Z,14.07
2022-12-17T10:55:51.995Z,14.10
2022-12-17T10:58:44.255Z,13.57
2022-12-17T11:01:36.643Z,15.00
2022-12-17T11:04:21.658Z,15.82
2022-12-17T11:07:10.733Z,14.93
2022-12-17T11:10:07.064Z,12.65
2022-12-17T11:12:57.637Z,12.50
2022-12-17T11:15:50.085Z,14.57
2022-12-17T11:18:39.253Z,12.70
2022-12-17T11:21:29.238Z,12.77
2022-12-17T11:24:22.456Z,13.43
2022-12-17T11:29:55.811Z,12.13
2022-12-17T11:33:05.736Z,12.27
2022-12-17T11:36:00.922Z,13.75
2022-12-17T11:38:54.000Z,15.90
2022-12-17T11:41:55.304Z,12.25
2022-12-17T11:45:04.835Z,11.80
2022-12-17T11:48:01.234Z,12.13
2022-12-17T11:50:56.582Z,12.05
2022-12-17T11:53:58.557Z,12.15
2022-12-17T11:56:49.350Z,12.10
2022-12-17T11:59:50.933Z,15.25
2022-12-17T12:02:53.946Z,13.60
2022-12-17T12:05:51.994Z,13.10
2022-12-17T12:08:49.945Z,15.50
2022-12-17T12:11:45.909Z,14.93
2022-12-17T12:14:47.266Z,13.70
2022-12-17T12:17:46.339Z,13.13
2022-12-17T12:20:45.673Z,14.73
2022-12-17T12:23:39.454Z,15.05
2022-12-17T12:26:41.367Z,14.32
2022-12-17T12:29:40.442Z,14.15
2022-12-17T12:32:33.941Z,15.25
2022-12-17T12:35:24.138Z,15.55
2022-12-17T12:38:09.298Z,16.85
2022-12-17T12:41:04.947Z,16.23
2022-12-17T12:43:54.003Z,14.57
2022-12-17T12:46:44.810Z,16.45
2022-12-17T12:49:38.621Z,15.48
2022-12-17T12:55:11.608Z,16.67
2022-12-17T12:58:00.078Z,15.68
2022-12-17T13:00:53.013Z,14.85
2022-12-17T13:03:47.486Z,15.57
2022-12-17T13:06:36.215Z,16.60
2022-12-17T13:09:07.732Z,16.75
2022-12-17T13:11:38.808Z,15.68
2022-12-17T13:14:21.403Z,16.98
2022-12-17T13:16:56.525Z,11.98
2022-12-17T13:19:36.553Z,17.45
2022-12-17T13:22:29.769Z,15.32
2022-12-17T13:25:14.987Z,11.52
2022-12-17T13:27:43.768Z,15.18
2022-12-17T13:30:33.619Z,15.73
2022-12-17T13:33:17.067Z,18.75
2022-12-17T13:35:58.739Z,16.05
2022-12-17T13:38:37.876Z,17.10
2022-12-17T13:41:10.446Z,17.10
2022-12-17T13:43:44.614Z,16.77
2022-12-17T13:46:20.769Z,15.85
2022-12-17T13:48:58.611Z,16.35
2022-12-17T13:51:28.097Z,16.10
2022-12-17T13:53:57.829Z,15.80
2022-12-17T13:56:27.897Z,14.23
2022-12-17T13:58:58.042Z,15.45
2022-12-17T14:01:27.063Z,15.90
2022-12-17T14:04:06.368Z,15.75
2022-12-17T14:06:37.427Z,15.65
2022-12-17T14:09:08.552Z,16.55
2022-12-17T14:11:56.275Z,15.57
2022-12-17T14:14:31.133Z,16.00
2022-12-17T14:16:59.318Z,16.42
2022-12-17T14:19:30.034Z,16.50
2022-12-17T14:21:58.073Z,16.52
2022-12-17T14:24:29.423Z,16.73
2022-12-17T14:26:59.230Z,20.10
2022-12-17T14:29:28.700Z,19.63
2022-12-17T14:31:58.899Z,16.77
2022-12-17T14:34:28.475Z,18.42
2022-12-17T14:36:59.061Z,16.98
2022-12-17T14:39:28.932Z,15.35
2022-12-17T14:42:16.370Z,15.13
2022-12-17T14:44:52.148Z,15.98
2022-12-17T14:47:23.068Z,16.77
2022-12-17T14:50:02.437Z,15.90
2022-12-17T14:52:40.307Z,15.50
2022-12-17T14:55:31.366Z,14.82
2022-12-17T14:58:16.233Z,16.63
2022-12-17T15:00:47.800Z,15.23
2022-12-17T15:03:20.601Z,15.52
2022-12-17T15:05:54.032Z,15.45
2022-12-17T15:08:22.564Z,16.38
2022-12-17T15:10:50.812Z,16.17
2022-12-17T15:13:18.523Z,16.95
2022-12-17T15:15:46.622Z,16.98
2022-12-17T15:18:14.376Z,16.25
2022-12-17T15:20:42.344Z,18.40
2022-12-17T15:23:16.717Z,15.93
2022-12-17T15:25:46.898Z,15.93
2022-12-17T15:28:15.579Z,15.82
2022-12-17T15:30:43.523Z,15.75
2022-12-17T15:33:11.797Z,19.85
2022-12-17T15:35:39.930Z,21.02
2022-12-17T15:38:08.063Z,18.38
2022-12-17T15:40:38.646Z,17.40
2022-12-17T15:43:11.088Z,17.35
2022-12-17T15:45:39.184Z,18.10
2022-12-17T15:48:07.034Z,18.33
2022-12-17T15:50:34.946Z,18.98
2022-12-17T15:53:02.507Z,18.20
2022-12-17T15:55:30.669Z,16.42
2022-12-17T15:57:59.851Z,17.60
2022-12-17T16:00:27.440Z,18.80
2022-12-17T16:02:55.133Z,19.02
2022-12-17T16:05:23.634Z,18.27
2022-12-17T16:07:52.084Z,19.25
2022-12-17T16:10:20.085Z,20.15
2022-12-17T16:12:47.793Z,18.48
2022-12-17T16:15:16.718Z,20.35
2022-12-17T16:17:44.312Z,19.08
2022-12-17T16:20:12.742Z,20.15
2022-12-17T16:22:40.405Z,19.25
2022-12-17T16:25:08.693Z,19.73
2022-12-17T16:27:36.449Z,21.02
2022-12-17T16:30:04.306Z,18.85
2022-12-17T16:32:36.548Z,19.30
2022-12-17T16:35:05.698Z,18.98
2022-12-17T16:37:33.353Z,18.58
2022-12-17T16:40:01.036Z,18.35
2022-12-17T16:42:29.102Z,17.88
2022-12-17T16:44:59.140Z,19.30
2022-12-17T16:47:26.713Z,18.63
2022-12-17T16:49:55.671Z,21.05
2022-12-17T16:52:23.415Z,21.30
2022-12-17T16:54:50.986Z,18.88
2022-12-17T16:57:18.552Z,19.17
2022-12-17T16:59:46.054Z,19.52
2022-12-17T17:02:15.760Z,25.35
2022-12-17T17:04:43.540Z,18.77
2022-12-17T17:07:14.727Z,18.75
2022-12-17T17:09:42.334Z,19.55
2022-12-17T17:12:11.787Z,19.67
2022-12-17T17:14:40.246Z,19.33
2022-12-17T17:17:08.040Z,18.60
2022-12-17T17:19:35.670Z,18.90
2022-12-17T17:22:03.259Z,21.00
2022-12-17T17:24:32.243Z,21.60
2022-12-17T17:27:00.156Z,18.98
2022-12-17T17:29:27.724Z,19.77
2022-12-17T17:32:11.854Z,21.58
2022-12-17T17:34:41.317Z,20.35
2022-12-17T17:37:08.990Z,23.23
2022-12-17T17:39:37.892Z,29.73
2022-12-17T17:42:05.735Z,28.40
2022-12-17T17:44:33.328Z,24.75
2022-12-17T17:47:01.360Z,23.73
2022-12-17T17:49:29.022Z,27.90
2022-12-17T17:52:12.446Z,31.40
2022-12-17T17:54:41.495Z,30.40
2022-12-17T17:57:10.075Z,25.30
2022-12-17T17:59:39.241Z,24.30
2022-12-17T18:02:07.074Z,23.48
2022-12-17T18:04:34.754Z,23.73
2022-12-17T18:07:24.887Z,23.73
2022-12-17T18:09:51.179Z,24.63
2022-12-17T18:12:36.304Z,26.75
2022-12-17T18:15:19.363Z,26.55
2022-12-17T18:17:50.943Z,25.98
2022-12-17T18:20:18.769Z,25.67
2022-12-17T18:22:47.150Z,25.92
2022-12-17T18:25:17.610Z,25.38
2022-12-17T18:27:45.477Z,25.42
2022-12-17T18:30:13.966Z,23.13
2022-12-17T18:32:42.129Z,24.58
2022-12-17T18:35:10.339Z,24.25
2022-12-17T18:37:38.009Z,25.08
2022-12-17T18:40:07.329Z,24.23
2022-12-17T18:42:53.942Z,24.25
2022-12-17T18:45:21.806Z,23.25
2022-12-17T18:47:49.540Z,24.90
2022-12-17T18:50:17.338Z,24.02
2022-12-17T18:52:45.022Z,24.17
2022-12-17T18:55:12.676Z,25.55
2022-12-17T18:57:41.631Z,24.67
2022-12-17T19:00:10.766Z,25.23
2022-12-17T19:02:38.512Z,26.95
2022-12-17T19:05:06.611Z,25.13
2022-12-17T19:07:34.223Z,24.98
2022-12-17T19:10:01.773Z,24.90
2022-12-17T19:12:29.370Z,26.48
2022-12-17T19:14:58.291Z,25.13
2022-12-17T19:17:26.343Z,24.80
2022-12-17T19:19:53.904Z,24.48
2022-12-17T19:22:21.537Z,25.10
2022-12-17T19:24:49.083Z,25.35
2022-12-17T19:27:16.836Z,25.48
2022-12-17T19:29:49.116Z,25.38
2022-12-17T19:32:18.745Z,24.00
2022-12-17T19:34:46.346Z,25.77
2022-12-17T19:37:13.986Z,26.52
2022-12-17T19:39:41.577Z,27.42
2022-12-17T19:42:24.163Z,26.95
2022-12-17T19:44:52.013Z,28.13
2022-12-17T19:47:21.037Z,28.98
2022-12-17T19:49:48.599Z,27.27
2022-12-17T19:52:16.262Z,26.85
2022-12-17T19:54:43.919Z,24.30
2022-12-17T19:57:11.557Z,24.33
2022-12-17T19:59:39.088Z,22.60
2022-12-17T20:02:06.752Z,20.73
2022-12-17T20:04:35.913Z,20.67
2022-12-17T20:07:03.471Z,19.70
2022-12-17T20:09:31.029Z,19.83
2022-12-17T20:11:58.591Z,18.80
2022-12-17T20:14:29.180Z,20.25
2022-12-17T20:16:58.623Z,20.83
2022-12-17T20:19:30.873Z,23.65
2022-12-17T20:22:01.319Z,25.00
2022-12-17T20:24:31.920Z,22.83
2022-12-17T20:27:01.179Z,22.30
2022-12-17T20:29:29.078Z,21.75
2022-12-17T20:31:56.959Z,19.92
2022-12-17T20:34:25.323Z,20.45
2022-12-17T20:36:53.937Z,21.25
2022-12-17T20:39:26.976Z,20.83
2022-12-17T20:41:55.103Z,21.42
2022-12-17T20:44:22.727Z,19.50
2022-12-17T20:46:50.280Z,18.92
2022-12-17T20:49:17.841Z,20.40
2022-12-17T20:51:45.430Z,19.58
2022-12-17T20:54:13.006Z,19.63
2022-12-17T20:56:41.977Z,18.02
2022-12-17T20:59:14.129Z,20.58
2022-12-17T21:01:42.062Z,19.50
2022-12-17T21:04:10.502Z,19.73
2022-12-17T21:06:39.861Z,21.70
2022-12-17T21:09:07.991Z,21.98
2022-12-17T21:11:37.096Z,19.48
2022-12-17T21:14:10.937Z,20.42
2022-12-17T21:16:40.008Z,19.25
2022-12-17T21:19:10.289Z,19.85
2022-12-17T21:21:39.566Z,19.58
2022-12-17T21:24:08.838Z,19.48
2022-12-17T21:26:38.637Z,20.25
2022-12-17T21:29:09.393Z,19.95
2022-12-17T21:31:40.246Z,20.25
2022-12-17T21:34:10.891Z,20.52
2022-12-17T21:36:38.916Z,19.88
2022-12-17T21:39:09.303Z,19.85
2022-12-17T21:41:39.307Z,21.40
2022-12-17T21:44:14.642Z,21.98
2022-12-17T21:46:43.453Z,22.27
2022-12-17T21:49:15.600Z,21.20
2022-12-17T21:51:43.352Z,21.17
2022-12-17T21:54:15.677Z,21.73
2022-12-17T21:56:46.686Z,22.20
2022-12-17T21:59:15.638Z,22.58
2022-12-17T22:01:43.375Z,21.35
2022-12-17T22:04:11.073Z,19.88
2022-12-17T22:06:43.298Z,20.80
2022-12-17T22:09:24.067Z,20.88
2022-12-17T22:12:16.868Z,20.40
2022-12-17T22:14:45.950Z,20.38
2022-12-17T22:17:13.528Z,20.70
2022-12-17T22:19:41.334Z,20.60
2022-12-17T22:22:08.985Z,22.48
2022-12-17T22:24:36.896Z,23.33
2022-12-17T22:27:06.862Z,21.40
2022-12-17T22:29:55.306Z,20.38
2022-12-17T22:32:50.449Z,23.63
2022-12-17T22:36:32.601Z,23.00
2022-12-17T22:42:36.446Z,20.45
2022-12-17T22:44:02.282Z,21.58
2022-12-17T22:44:38.631Z,22.55
2022-12-17T22:46:30.655Z,27.33
2022-12-17T22:49:00.075Z,29.60
2022-12-17T22:51:33.037Z,27.70
2022-12-17T22:54:10.215Z,24.17
2022-12-17T22:57:15.170Z,25.40
2022-12-17T22:59:27.853Z,27.63
2022-12-17T23:01:55.501Z,28.17
2022-12-17T23:04:24.570Z,24.48
2022-12-17T23:06:52.254Z,21.80
2022-12-17T23:09:20.476Z,20.67
2022-12-17T23:11:49.048Z,24.05
2022-12-17T23:14:17.346Z,24.35
2022-12-17T23:16:45.233Z,22.98
2022-12-17T23:19:13.557Z,25.30
2022-12-17T23:21:42.450Z,25.30
2022-12-17T23:24:10.523Z,27.05
2022-12-17T23:26:39.208Z,27.00
2022-12-17T23:29:08.681Z,28.52
2022-12-17T23:31:38.672Z,29.73
2022-12-17T23:34:07.821Z,31.48
2022-12-17T23:36:36.347Z,28.45
2022-12-17T23:39:05.842Z,25.35
2022-12-17T23:41:33.523Z,20.95
2022-12-17T23:44:01.257Z,22.90
2022-12-17T23:46:31.401Z,21.20
2022-12-17T23:48:59.420Z,17.40
2022-12-17T23:51:28.125Z,18.20
2022-12-17T23:53:56.133Z,19.67
2022-12-17T23:56:27.105Z,21.67
2022-12-17T23:58:56.533Z,21.17
